sensor_id;sensor_type;location;lat;lon;timestamp;P1;durP1;ratioP1;P2;durP2;ratioP2
31531;SDS011;23787;52.180;5.288;2022-12-01T00:03:58;5.70;;;5.30;;
31531;SDS011;23787;52.180;5.288;2022-12-01T00:08:58;5.70;;;5.30;;
31531;SDS011;23787;52.180;5.288;2022-12-01T00:13:58;5.70;;;5.30;;
31531;SDS011;23787;52.180;5.288;2022-12-01T00:18:58;6.60;;;6.00;;
31531;SDS011;23787;52.180;5.288;2022-12-01T00:23:58;6.60;;;6.00;;
31531;SDS011;23787;52.180;5.288;2022-12-01T00:28:58;6.60;;;6.00;;
31531;SDS011;23787;52.180;5.288;2022-12-01T00:33:58;6.60;;;6.10;;
31531;SDS011;23787;52.180;5.288;2022-12-01T00:43:58;6.60;;;6.10;;
31531;SDS011;23787;52.180;5.288;2022-12-01T00:50:30;unknown;;;unknown;;
31531;SDS011;23787;52.180;5.288;2022-12-01T00:55:30;unknown;;;unknown;;
31531;SDS011;23787;52.180;5.288;2022-12-01T01:05:30;6.90;;;6.30;;
31531;SDS011;23787;52.180;5.288;2022-12-01T01:10:30;6.90;;;6.30;;
31531;SDS011;23787;52.180;5.288;2022-12-01T01:15:30;6.90;;;6.30;;
31531;SDS011;23787;52.180;5.288;2022-12-01T01:30:30;6.40;;;5.90;;
31531;SDS011;23787;52.180;5.288;2022-12-01T01:35:30;7.10;;;6.60;;
31531;SDS011;23787;52.180;5.288;2022-12-01T01:40:30;7.10;;;6.60;;
31531;SDS011;23787;52.180;5.288;2022-12-01T01:55:32;6.80;;;6.30;;
31531;SDS011;23787;52.180;5.288;2022-12-01T02:00:30;6.80;;;6.30;;
31531;SDS011;23787;52.180;5.288;2022-12-01T02:05:32;7.60;;;7.00;;
31531;SDS011;23787;52.180;5.288;2022-12-01T02:10:38;7.60;;;7.00;;
31531;SDS011;23787;52.180;5.288;2022-12-01T02:15:36;7.60;;;7.00;;
31531;SDS011;23787;52.180;5.288;2022-12-01T02:30:35;6.70;;;6.20;;
31531;SDS011;23787;52.180;5.288;2022-12-01T02:35:33;6.50;;;6.00;;
31531;SDS011;23787;52.180;5.288;2022-12-01T02:40:33;6.50;;;6.00;;
31531;SDS011;23787;52.180;5.288;2022-12-01T02:45:35;6.50;;;6.00;;
31531;SDS011;23787;52.180;5.288;2022-12-01T02:55:30;6.00;;;5.50;;
31531;SDS011;23787;52.180;5.288;2022-12-01T03:00:30;6.00;;;5.50;;
31531;SDS011;23787;52.180;5.288;2022-12-01T03:05:37;6.80;;;6.30;;
31531;SDS011;23787;52.180;5.288;2022-12-01T03:10:36;6.80;;;6.30;;
31531;SDS011;23787;52.180;5.288;2022-12-01T03:20:35;7.60;;;7.00;;
31531;SDS011;23787;52.180;5.288;2022-12-01T03:25:30;7.60;;;7.00;;
31531;SDS011;23787;52.180;5.288;2022-12-01T03:30:32;7.60;;;7.00;;
31531;SDS011;23787;52.180;5.288;2022-12-01T03:35:35;7.80;;;7.10;;
31531;SDS011;23787;52.180;5.288;2022-12-01T03:50:35;6.30;;;5.80;;
31531;SDS011;23787;52.180;5.288;2022-12-01T03:55:31;6.30;;;5.80;;
31531;SDS011;23787;52.180;5.288;2022-12-01T04:00:30;6.30;;;5.80;;
31531;SDS011;23787;52.180;5.288;2022-12-01T04:05:31;6.90;;;6.40;;
31531;SDS011;23787;52.180;5.288;2022-12-01T04:10:30;6.90;;;6.40;;
31531;SDS011;23787;52.180;5.288;2022-12-01T04:15:30;6.90;;;6.40;;
31531;SDS011;23787;52.180;5.288;2022-12-01T04:20:30;6.70;;;6.20;;
31531;SDS011;23787;52.180;5.288;2022-12-01T04:30:30;6.70;;;6.20;;
31531;SDS011;23787;52.180;5.288;2022-12-01T04:35:30;7.30;;;6.60;;
31531;SDS011;23787;52.180;5.288;2022-12-01T04:40:30;7.30;;;6.60;;
31531;SDS011;23787;52.180;5.288;2022-12-01T04:45:30;7.50;;;6.80;;
31531;SDS011;23787;52.180;5.288;2022-12-01T04:50:30;7.50;;;6.80;;
31531;SDS011;23787;52.180;5.288;2022-12-01T04:55:30;7.50;;;6.80;;
31531;SDS011;23787;52.180;5.288;2022-12-01T05:00:30;6.70;;;6.20;;
31531;SDS011;23787;52.180;5.288;2022-12-01T05:05:30;6.70;;;6.20;;
31531;SDS011;23787;52.180;5.288;2022-12-01T05:10:30;6.70;;;6.20;;
31531;SDS011;23787;52.180;5.288;2022-12-01T05:15:31;6.20;;;5.70;;
31531;SDS011;23787;52.180;5.288;2022-12-01T05:25:30;6.20;;;5.70;;
31531;SDS011;23787;52.180;5.288;2022-12-01T05:30:30;6.80;;;6.30;;
31531;SDS011;23787;52.180;5.288;2022-12-01T05:40:30;6.80;;;6.30;;
31531;SDS011;23787;52.180;5.288;2022-12-01T05:45:30;5.60;;;5.20;;
31531;SDS011;23787;52.180;5.288;2022-12-01T05:50:30;5.60;;;5.20;;
31531;SDS011;23787;52.180;5.288;2022-12-01T05:55:31;5.60;;;5.20;;
31531;SDS011;23787;52.180;5.288;2022-12-01T06:00:30;7.30;;;6.80;;
31531;SDS011;23787;52.180;5.288;2022-12-01T06:10:30;7.30;;;6.80;;
31531;SDS011;23787;52.180;5.288;2022-12-01T06:15:30;5.80;;;5.40;;
31531;SDS011;23787;52.180;5.288;2022-12-01T06:20:30;5.80;;;5.40;;
31531;SDS011;23787;52.180;5.288;2022-12-01T06:25:30;5.80;;;5.40;;
31531;SDS011;23787;52.180;5.288;2022-12-01T06:30:30;7.30;;;6.70;;
31531;SDS011;23787;52.180;5.288;2022-12-01T06:40:30;7.30;;;6.70;;
31531;SDS011;23787;52.180;5.288;2022-12-01T06:45:30;5.90;;;5.40;;
31531;SDS011;23787;52.180;5.288;2022-12-01T06:50:30;5.90;;;5.40;;
31531;SDS011;23787;52.180;5.288;2022-12-01T07:00:30;5.70;;;5.30;;
31531;SDS011;23787;52.180;5.288;2022-12-01T13:05:59;40.00;;;37.80;;
31531;SDS011;23787;52.180;5.288;2022-12-01T13:10:59;40.00;;;37.80;;
31531;SDS011;23787;52.180;5.288;2022-12-01T13:15:56;32.20;;;30.30;;
31531;SDS011;23787;52.180;5.288;2022-12-01T13:25:57;32.20;;;30.30;;
31531;SDS011;23787;52.180;5.288;2022-12-01T13:30:58;35.30;;;33.30;;
31531;SDS011;23787;52.180;5.288;2022-12-01T13:35:55;35.30;;;33.30;;
31531;SDS011;23787;52.180;5.288;2022-12-01T13:41:12;35.30;;;33.30;;
31531;SDS011;23787;52.180;5.288;2022-12-01T13:46:00;43.00;;;40.70;;
31531;SDS011;23787;52.180;5.288;2022-12-01T13:50:56;43.00;;;40.70;;
31531;SDS011;23787;52.180;5.288;2022-12-01T13:55:57;43.00;;;40.70;;
31531;SDS011;23787;52.180;5.288;2022-12-01T14:10:57;45.80;;;43.00;;
31531;SDS011;23787;52.180;5.288;2022-12-01T14:15:55;40.40;;;38.00;;
31531;SDS011;23787;52.180;5.288;2022-12-01T14:20:54;40.40;;;38.00;;
31531;SDS011;23787;52.180;5.288;2022-12-01T14:25:58;40.40;;;38.00;;
31531;SDS011;23787;52.180;5.288;2022-12-01T14:31:01;39.10;;;36.90;;
31531;SDS011;23787;52.180;5.288;2022-12-01T14:35:57;39.10;;;36.90;;
31531;SDS011;23787;52.180;5.288;2022-12-01T14:40:54;39.10;;;36.90;;
31531;SDS011;23787;52.180;5.288;2022-12-01T14:46:02;47.80;;;45.20;;
31531;SDS011;23787;52.180;5.288;2022-12-01T14:51:08;47.80;;;45.20;;
31531;SDS011;23787;52.180;5.288;2022-12-01T14:55:56;47.80;;;45.20;;
31531;SDS011;23787;52.180;5.288;2022-12-01T15:00:58;29.90;;;28.10;;
31531;SDS011;23787;52.180;5.288;2022-12-01T15:05:54;29.90;;;28.10;;
31531;SDS011;23787;52.180;5.288;2022-12-01T15:10:56;29.90;;;28.10;;
31531;SDS011;23787;52.180;5.288;2022-12-01T15:15:56;25.30;;;23.80;;
31531;SDS011;23787;52.180;5.288;2022-12-01T15:25:54;25.30;;;23.80;;
31531;SDS011;23787;52.180;5.288;2022-12-01T15:30:54;19.40;;;18.20;;
31531;SDS011;23787;52.180;5.288;2022-12-01T15:35:55;19.40;;;18.20;;
31531;SDS011;23787;52.180;5.288;2022-12-01T15:40:55;19.40;;;18.20;;
31531;SDS011;23787;52.180;5.288;2022-12-01T15:45:56;16.60;;;15.60;;
31531;SDS011;23787;52.180;5.288;2022-12-01T15:51:02;16.60;;;15.60;;
31531;SDS011;23787;52.180;5.288;2022-12-01T15:55:55;16.60;;;15.60;;
31531;SDS011;23787;52.180;5.288;2022-12-01T16:00:57;12.50;;;11.60;;
31531;SDS011;23787;52.180;5.288;2022-12-01T16:11:12;12.50;;;11.60;;
31531;SDS011;23787;52.180;5.288;2022-12-01T16:21:01;11.70;;;10.90;;
31531;SDS011;23787;52.180;5.288;2022-12-01T16:25:54;11.70;;;10.90;;
31531;SDS011;23787;52.180;5.288;2022-12-01T16:30:54;8.80;;;8.10;;
31531;SDS011;23787;52.180;5.288;2022-12-01T16:35:54;8.80;;;8.10;;
31531;SDS011;23787;52.180;5.288;2022-12-01T16:40:56;8.80;;;8.10;;
31531;SDS011;23787;52.180;5.288;2022-12-01T16:45:57;7.10;;;6.50;;
31531;SDS011;23787;52.180;5.288;2022-12-01T16:50:55;7.10;;;6.50;;
31531;SDS011;23787;52.180;5.288;2022-12-01T16:55:56;7.10;;;6.50;;
31531;SDS011;23787;52.180;5.288;2022-12-01T17:05:54;5.80;;;5.40;;
31531;SDS011;23787;52.180;5.288;2022-12-01T17:10:54;5.80;;;5.40;;
31531;SDS011;23787;52.180;5.288;2022-12-01T17:20:56;5.50;;;5.10;;
31531;SDS011;23787;52.180;5.288;2022-12-01T17:25:54;5.50;;;5.10;;
31531;SDS011;23787;52.180;5.288;2022-12-01T17:35:57;6.40;;;5.10;;
31531;SDS011;23787;52.180;5.288;2022-12-01T17:41:04;6.40;;;5.10;;
31531;SDS011;23787;52.180;5.288;2022-12-01T17:45:54;7.20;;;6.70;;
31531;SDS011;23787;52.180;5.288;2022-12-01T17:55:54;7.20;;;6.70;;
31531;SDS011;23787;52.180;5.288;2022-12-01T18:00:54;5.30;;;4.90;;
31531;SDS011;23787;52.180;5.288;2022-12-01T18:05:54;5.30;;;4.90;;
31531;SDS011;23787;52.180;5.288;2022-12-01T18:10:54;5.30;;;4.90;;
31531;SDS011;23787;52.180;5.288;2022-12-01T18:20:54;6.30;;;5.80;;
31531;SDS011;23787;52.180;5.288;2022-12-01T18:30:54;4.60;;;4.20;;
31531;SDS011;23787;52.180;5.288;2022-12-01T18:35:54;4.60;;;4.20;;
31531;SDS011;23787;52.180;5.288;2022-12-01T18:40:56;4.60;;;4.20;;
31531;SDS011;23787;52.180;5.288;2022-12-01T18:50:54;4.40;;;4.10;;
31531;SDS011;23787;52.180;5.288;2022-12-01T18:55:54;4.40;;;4.10;;
31531;SDS011;23787;52.180;5.288;2022-12-01T19:00:54;4.80;;;4.40;;
31531;SDS011;23787;52.180;5.288;2022-12-01T19:20:54;4.90;;;4.40;;
31531;SDS011;23787;52.180;5.288;2022-12-01T19:35:54;3.80;;;3.50;;
31531;SDS011;23787;52.180;5.288;2022-12-01T19:40:54;3.80;;;3.50;;
31531;SDS011;23787;52.180;5.288;2022-12-01T20:00:54;5.00;;;4.50;;
31531;SDS011;23787;52.180;5.288;2022-12-01T20:05:59;5.00;;;4.50;;
31531;SDS011;23787;52.180;5.288;2022-12-01T20:10:54;5.00;;;4.50;;
31531;SDS011;23787;52.180;5.288;2022-12-01T20:15:59;3.90;;;3.60;;
31531;SDS011;23787;52.180;5.288;2022-12-01T20:25:57;3.90;;;3.60;;
31531;SDS011;23787;52.180;5.288;2022-12-01T20:30:54;5.40;;;5.00;;
31531;SDS011;23787;52.180;5.288;2022-12-01T20:35:54;5.40;;;5.00;;
31531;SDS011;23787;52.180;5.288;2022-12-01T20:40:54;5.40;;;5.00;;
31531;SDS011;23787;52.180;5.288;2022-12-01T20:50:54;4.50;;;4.10;;
31531;SDS011;23787;52.180;5.288;2022-12-01T20:55:54;4.50;;;4.10;;
31531;SDS011;23787;52.180;5.288;2022-12-01T21:00:54;4.80;;;4.40;;
31531;SDS011;23787;52.180;5.288;2022-12-01T21:05:57;4.80;;;4.40;;
31531;SDS011;23787;52.180;5.288;2022-12-01T21:15:55;4.40;;;4.00;;
31531;SDS011;23787;52.180;5.288;2022-12-01T21:20:59;4.40;;;4.00;;
31531;SDS011;23787;52.180;5.288;2022-12-01T21:25:55;5.20;;;4.80;;
31531;SDS011;23787;52.180;5.288;2022-12-01T21:40:54;5.30;;;4.90;;
31531;SDS011;23787;52.180;5.288;2022-12-01T21:46:01;5.30;;;4.90;;
31531;SDS011;23787;52.180;5.288;2022-12-01T21:55:54;5.40;;;5.00;;
31531;SDS011;23787;52.180;5.288;2022-12-01T22:10:57;5.40;;;5.00;;
31531;SDS011;23787;52.180;5.288;2022-12-01T22:30:54;6.80;;;6.20;;
31531;SDS011;23787;52.180;5.288;2022-12-01T22:40:56;5.50;;;5.10;;
31531;SDS011;23787;52.180;5.288;2022-12-01T22:46:09;5.50;;;5.10;;
31531;SDS011;23787;52.180;5.288;2022-12-01T22:50:57;5.50;;;5.10;;
31531;SDS011;23787;52.180;5.288;2022-12-01T22:55:56;5.60;;;5.20;;
31531;SDS011;23787;52.180;5.288;2022-12-01T23:00:55;5.60;;;5.20;;
31531;SDS011;23787;52.180;5.288;2022-12-01T23:10:54;5.40;;;5.00;;
31531;SDS011;23787;52.180;5.288;2022-12-01T23:15:54;5.40;;;5.00;;
31531;SDS011;23787;52.180;5.288;2022-12-01T23:20:56;5.40;;;5.00;;
31531;SDS011;23787;52.180;5.288;2022-12-01T23:25:54;5.60;;;5.20;;
31531;SDS011;23787;52.180;5.288;2022-12-01T23:35:57;5.60;;;5.20;;
31531;SDS011;23787;52.180;5.288;2022-12-01T23:40:56;5.20;;;4.80;;
31531;SDS011;23787;52.180;5.288;2022-12-01T23:46:00;5.20;;;4.80;;
31531;SDS011;23787;52.180;5.288;2022-12-01T23:48:30;5.20;;;4.80;;
